Time;durP1;ratioP1;P1;durP2;ratioP2;P2;SDS_P1;SDS_P2;PMS_P1;PMS_P2;Temp;Humidity;BMP_temperature;BMP_pressure;BME280_temperature;BME280_humidity;BME280_pressure;Samples;Min_cycle;Max_cycle;Signal;HPM_P1;HPM_P2
2023/01/09 00:01:35;;;;;;;70.68;37.60;;;;;;;0.24;79.24;99999.06;5111970;28;20020;-70
2023/01/09 00:04:01;;;;;;;62.40;34.67;;;;;;;0.19;79.58;99990.75;5109046;28;20036;-71
2023/01/09 00:06:26;;;;;;;63.28;34.90;;;;;;;0.19;79.07;99991.59;5110671;28;20114;-71
2023/01/09 00:08:52;;;;;;;70.15;36.08;;;;;;;0.14;78.83;100002.50;5106316;28;20118;-71
2023/01/09 00:11:17;;;;;;;65.80;35.42;;;;;;;-0.41;81.21;99984.88;5093541;28;20020;-71
2023/01/09 00:13:44;;;;;;;76.07;39.35;;;;;;;-0.48;82.45;99994.13;5094686;28;20026;-71
2023/01/09 00:16:09;;;;;;;67.43;34.90;;;;;;;-0.23;81.95;99979.13;5111081;28;20371;-71
2023/01/09 00:18:36;;;;;;;65.40;34.75;;;;;;;-0.25;81.35;99992.28;5101741;28;20034;-71
2023/01/09 00:21:03;;;;;;;60.78;34.13;;;;;;;-0.47;82.62;99995.78;5091517;28;20020;-70
2023/01/09 00:23:29;;;;;;;64.00;33.45;;;;;;;-0.55;83.40;99992.59;5097410;28;20085;-70
2023/01/09 00:26:09;;;;;;;61.40;32.72;;;;;;;-0.43;83.92;99999.69;5104845;28;20035;-71
2023/01/09 00:28:35;;;;;;;65.53;35.40;;;;;;;-0.43;83.14;99991.44;5099382;28;20024;-70
2023/01/09 00:31:02;;;;;;;65.20;34.33;;;;;;;-0.20;82.60;99992.38;5091285;28;20072;-71
2023/01/09 00:33:31;;;;;;;60.83;34.33;;;;;;;-0.16;82.69;99981.72;5109727;28;20020;-71
2023/01/09 00:35:56;;;;;;;62.22;32.47;;;;;;;-0.07;82.24;99990.38;5110364;28;20020;-70
2023/01/09 00:38:22;;;;;;;65.45;33.53;;;;;;;0.11;81.50;99984.56;5111623;28;20034;-71
2023/01/09 00:40:47;;;;;;;55.47;30.85;;;;;;;0.02;81.42;99977.00;5111555;28;20486;-71
2023/01/09 00:43:13;;;;;;;60.90;32.38;;;;;;;-0.12;81.18;99969.13;5108709;28;20106;-71
2023/01/09 00:45:39;;;;;;;58.78;31.23;;;;;;;-0.18;82.25;99979.19;5111726;28;20036;-70
2023/01/09 00:48:12;;;;;;;52.63;30.92;;;;;;;-0.15;82.41;99973.19;5111456;28;20020;-70
2023/01/09 00:50:38;;;;;;;55.00;31.10;;;;;;;-0.16;82.18;99966.03;5110969;28;20024;-70
2023/01/09 00:53:14;;;;;;;58.40;30.65;;;;;;;-0.01;82.15;99975.59;5110056;28;20418;-71
2023/01/09 00:55:40;;;;;;;55.33;31.40;;;;;;;-0.03;80.72;99967.59;5111267;28;20158;-70
2023/01/09 00:58:05;;;;;;;62.70;31.63;;;;;;;-0.11;80.50;99964.47;5111462;28;20502;-71
2023/01/09 01:00:31;;;;;;;64.50;33.40;;;;;;;-0.11;80.46;99969.97;5109856;28;20456;-70
2023/01/09 01:02:57;;;;;;;57.05;31.08;;;;;;;-0.08;80.59;99963.94;5111374;28;20032;-71
2023/01/09 01:08:14;;;;;;;60.65;32.28;;;;;;;-0.17;81.31;99958.06;5111537;28;20035;-71
2023/01/09 01:10:40;;;;;;;53.35;30.00;;;;;;;-0.17;81.34;99964.38;5111333;28;20106;-70
2023/01/09 01:13:05;;;;;;;54.75;31.50;;;;;;;-0.44;83.08;99965.06;5111508;28;20103;-70
2023/01/09 01:15:31;;;;;;;65.28;33.75;;;;;;;-0.45;83.42;99962.53;5111362;28;20020;-71
2023/01/09 01:17:57;;;;;;;65.03;35.17;;;;;;;-0.50;84.50;99949.53;5111285;28;20516;-71
2023/01/09 01:20:22;;;;;;;50.35;29.20;;;;;;;-0.34;83.89;99939.63;5109086;28;20577;-71
2023/01/09 01:22:48;;;;;;;52.80;31.75;;;;;;;-0.25;83.09;99941.97;5109804;28;20030;-71
2023/01/09 01:25:16;;;;;;;60.17;33.97;;;;;;;-0.27;83.10;99938.63;5110322;28;20031;-71
2023/01/09 01:27:42;;;;;;;74.55;34.00;;;;;;;0.00;82.20;99938.78;5111176;28;20035;-70
2023/01/09 01:30:12;;;;;;;51.67;29.40;;;;;;;0.15;81.31;99937.31;5112461;28;20026;-70
2023/01/09 01:32:38;;;;;;;58.10;32.75;;;;;;;0.28;80.03;99936.94;5112911;28;20023;-70
2023/01/09 01:35:05;;;;;;;61.47;32.63;;;;;;;0.17;79.99;99937.91;5110321;28;20092;-71
2023/01/09 01:37:32;;;;;;;57.75;30.23;;;;;;;0.08;79.71;99929.25;5112714;28;20042;-70
2023/01/09 01:39:57;;;;;;;57.50;30.80;;;;;;;0.00;79.02;99927.78;5110907;28;20166;-71
2023/01/09 01:42:23;;;;;;;55.00;29.73;;;;;;;0.00;78.46;99927.78;5114529;28;20068;-71
2023/01/09 01:44:57;;;;;;;54.17;30.63;;;;;;;-0.29;79.98;99925.13;5113463;28;20030;-70
2023/01/09 01:47:47;;;;;;;60.05;31.20;;;;;;;-0.13;79.02;99920.69;5113568;28;20023;-70
2023/01/09 01:50:18;;;;;;;52.38;30.00;;;;;;;-0.07;78.01;99919.66;5086952;28;20579;-71
2023/01/09 01:52:49;;;;;;;51.70;28.85;;;;;;;-0.31;79.45;99913.56;5112044;28;20024;-72
2023/01/09 01:55:17;;;;;;;51.17;29.58;;;;;;;-0.01;78.79;99909.56;5094015;28;20486;-71
2023/01/09 01:57:47;;;;;;;52.75;30.02;;;;;;;0.18;77.42;99912.03;5092803;28;20125;-71
2023/01/09 02:00:13;;;;;;;54.38;28.23;;;;;;;0.21;76.86;99906.03;5113828;28;20080;-71
2023/01/09 02:02:38;;;;;;;52.72;28.85;;;;;;;0.10;76.13;99903.13;5113682;28;20054;-71
2023/01/09 02:05:04;;;;;;;59.45;31.25;;;;;;;-0.07;76.49;99894.91;5114320;28;20493;-71
2023/01/09 02:07:30;;;;;;;59.03;30.48;;;;;;;0.07;76.60;99903.66;5111532;28;20122;-71
2023/01/09 02:09:56;;;;;;;60.65;32.72;;;;;;;-0.20;76.36;99898.88;5114180;28;20036;-71
2023/01/09 02:12:24;;;;;;;56.70;32.35;;;;;;;-0.13;76.90;99901.44;5114236;27;20016;-71
2023/01/09 02:15:02;;;;;;;57.33;32.15;;;;;;;-0.05;77.03;99891.94;5114171;28;20076;-71
2023/01/09 02:17:34;;;;;;;66.03;34.22;;;;;;;0.06;76.52;99903.88;5113276;28;20049;-71
2023/01/09 02:20:24;;;;;;;60.00;31.10;;;;;;;-0.08;76.92;99886.94;5112712;28;20055;-71
2023/01/09 02:23:01;;;;;;;55.83;29.88;;;;;;;-0.20;77.36;99884.28;5111943;28;20098;-70
2023/01/09 02:25:58;;;;;;;57.53;29.77;;;;;;;-0.63;78.06;99886.66;5113207;28;20031;-71
2023/01/09 02:29:00;;;;;;;66.25;36.13;;;;;;;-0.63;79.75;99881.16;5113748;28;20418;-71
2023/01/09 02:31:44;;;;;;;70.22;34.33;;;;;;;-0.37;79.01;99876.91;5112622;28;20148;-71
2023/01/09 02:34:23;;;;;;;64.03;34.25;;;;;;;-0.31;78.31;99883.31;5113666;28;20036;-71
2023/01/09 02:37:12;;;;;;;60.25;31.52;;;;;;;-0.22;77.71;99876.31;5093403;28;20103;-71
2023/01/09 02:40:05;;;;;;;68.47;34.47;;;;;;;-0.23;77.12;99871.06;5093245;28;20039;-71
2023/01/09 02:42:32;;;;;;;54.35;33.03;;;;;;;-0.11;76.36;99876.47;5101444;28;20020;-71
2023/01/09 02:44:58;;;;;;;56.85;28.95;;;;;;;-0.23;76.05;99874.66;5113522;27;20031;-71
2023/01/09 02:47:23;;;;;;;51.03;29.23;;;;;;;-0.20;76.37;99876.03;5112136;28;20414;-71
2023/01/09 02:49:56;;;;;;;58.30;29.30;;;;;;;-0.13;76.05;99873.09;5111780;28;20119;-71
2023/01/09 02:52:38;;;;;;;46.72;27.90;;;;;;;-0.16;76.01;99877.22;5113425;28;20012;-71
2023/01/09 02:55:09;;;;;;;52.08;28.70;;;;;;;-0.16;76.58;99872.53;5112264;28;20050;-71
2023/01/09 02:57:38;;;;;;;52.53;27.98;;;;;;;-0.04;76.96;99877.94;5111492;28;20027;-71
2023/01/09 03:00:24;;;;;;;58.22;30.15;;;;;;;-0.38;77.81;99882.66;5112449;28;20072;-71
2023/01/09 03:02:56;;;;;;;55.35;29.27;;;;;;;-0.72;80.28;99875.28;5113297;28;20406;-71
2023/01/09 03:05:41;;;;;;;58.40;31.65;;;;;;;-0.93;82.47;99863.13;5111948;28;20550;-71
2023/01/09 03:08:18;;;;;;;58.97;30.90;;;;;;;-0.99;84.44;99867.69;5111852;28;20031;-71
2023/01/09 03:10:59;;;;;;;57.28;29.63;;;;;;;-0.58;83.51;99873.03;5112113;28;20023;-71
2023/01/09 03:13:31;;;;;;;55.45;28.42;;;;;;;-0.36;82.39;99858.47;5113030;28;20076;-71
2023/01/09 03:15:59;;;;;;;55.05;30.45;;;;;;;-0.43;81.88;99873.25;5112234;28;20024;-71
2023/01/09 03:18:27;;;;;;;55.85;31.92;;;;;;;-0.80;84.43;99860.03;5111655;28;20092;-71
2023/01/09 03:20:54;;;;;;;66.68;33.30;;;;;;;-0.53;84.09;99861.28;5112768;28;20028;-71
2023/01/09 03:23:19;;;;;;;57.35;30.63;;;;;;;-0.38;83.81;99855.16;5111931;28;20102;-71
2023/01/09 03:25:45;;;;;;;60.30;32.53;;;;;;;-0.23;82.84;99857.31;5112723;28;20119;-71
2023/01/09 03:28:28;;;;;;;90.15;43.55;;;;;;;-0.14;82.78;99858.53;5112857;28;20027;-71
2023/01/09 03:30:53;;;;;;;95.40;45.97;;;;;;;-0.20;82.17;99863.13;5111289;28;20049;-71
2023/01/09 03:33:19;;;;;;;96.10;46.05;;;;;;;-0.51;83.13;99865.44;5110628;28;20032;-71
2023/01/09 03:35:45;;;;;;;88.63;43.65;;;;;;;-0.91;86.33;99858.22;5107370;28;20121;-71
2023/01/09 03:38:10;;;;;;;82.80;42.90;;;;;;;-1.08;88.21;99863.69;5112587;28;20051;-71
2023/01/09 03:40:36;;;;;;;81.65;44.03;;;;;;;-0.94;88.87;99855.97;5112400;28;20457;-71
2023/01/09 03:43:01;;;;;;;61.30;32.95;;;;;;;-0.68;87.45;99861.88;5111762;28;20028;-71
2023/01/09 03:45:27;;;;;;;51.33;30.58;;;;;;;-0.76;86.81;99858.44;5110196;28;20417;-71
2023/01/09 03:47:52;;;;;;;50.15;27.75;;;;;;;-0.51;85.91;99865.44;5112312;28;20478;-71
2023/01/09 03:50:18;;;;;;;58.28;28.52;;;;;;;-0.39;85.10;99859.00;5110963;28;20035;-71
2023/01/09 03:52:44;;;;;;;49.25;27.20;;;;;;;-0.19;84.23;99847.44;5111371;28;20015;-71
2023/01/09 03:55:09;;;;;;;46.92;25.67;;;;;;;-0.13;83.30;99856.59;5110718;28;20027;-71
2023/01/09 03:57:35;;;;;;;54.88;29.23;;;;;;;-0.73;84.68;99857.94;5111879;28;20024;-71
2023/01/09 04:00:00;;;;;;;56.63;30.33;;;;;;;-0.72;86.01;99856.88;5109602;28;20497;-71
2023/01/09 04:02:26;;;;;;;46.65;27.00;;;;;;;-0.47;84.36;99880.34;5097773;28;20023;-71
2023/01/09 04:04:52;;;;;;;61.88;31.20;;;;;;;-0.33;83.26;99869.81;5108909;28;20047;-72
2023/01/09 04:07:17;;;;;;;58.28;30.20;;;;;;;-0.23;81.88;99860.06;5111229;28;20031;-71
2023/01/09 04:09:42;;;;;;;52.92;29.95;;;;;;;-0.13;80.99;99870.34;5110411;28;20031;-71
2023/01/09 04:12:08;;;;;;;59.78;31.13;;;;;;;-0.33;81.22;99869.00;5110650;28;20022;-71
2023/01/09 04:14:33;;;;;;;57.22;29.25;;;;;;;-0.55;82.62;99864.28;5111533;28;20028;-71
2023/01/09 04:16:59;;;;;;;79.82;51.00;;;;;;;-0.42;82.16;99879.59;5110678;28;20080;-71
2023/01/09 04:19:24;;;;;;;62.80;34.08;;;;;;;-0.23;81.76;99880.16;5111237;28;20115;-71
2023/01/09 04:21:50;;;;;;;52.03;29.45;;;;;;;-0.22;81.59;99883.72;5111119;28;20525;-71
2023/01/09 04:24:15;;;;;;;59.42;30.05;;;;;;;-0.08;80.93;99884.19;5110100;28;20019;-72
2023/01/09 04:26:41;;;;;;;49.25;28.35;;;;;;;-0.07;81.16;99880.34;5111156;28;20023;-71
2023/01/09 04:29:07;;;;;;;42.97;25.33;;;;;;;-0.12;81.56;99877.50;5111836;28;20035;-71
2023/01/09 04:31:32;;;;;;;47.28;27.95;;;;;;;-0.07;81.55;99880.34;5109665;28;20024;-71
2023/01/09 04:33:58;;;;;;;67.47;34.58;;;;;;;-0.06;81.94;99890.25;5110803;28;20077;-71
2023/01/09 04:36:23;;;;;;;64.20;36.53;;;;;;;0.10;81.15;99896.81;5110050;28;20077;-71
2023/01/09 04:38:49;;;;;;;67.65;37.10;;;;;;;0.12;80.34;99886.38;5110458;28;20554;-71
2023/01/09 04:41:47;;;;;;;79.85;38.13;;;;;;;0.18;79.28;99890.03;5107978;28;20019;-71
2023/01/09 04:44:00;;;;;;;66.13;37.35;;;;;;;0.04;78.84;99884.91;5111438;28;20032;-71
2023/01/09 04:46:25;;;;;;;64.18;32.30;;;;;;;-0.03;79.18;99890.59;5109551;28;20077;-71
2023/01/09 04:48:50;;;;;;;55.63;31.42;;;;;;;-0.03;79.54;99882.34;5111501;28;20031;-71
2023/01/09 04:51:16;;;;;;;62.65;34.88;;;;;;;0.05;78.76;99882.97;5109552;28;20522;-71
2023/01/09 04:53:41;;;;;;;55.35;31.65;;;;;;;-0.08;79.32;99881.44;5110501;28;20024;-71
2023/01/09 04:56:07;;;;;;;55.72;30.15;;;;;;;-0.03;79.62;99890.59;5110514;28;20059;-71
2023/01/09 04:58:32;;;;;;;49.30;28.63;;;;;;;0.08;79.30;99885.25;5110800;28;20062;-71
2023/01/09 05:00:58;;;;;;;55.05;30.08;;;;;;;0.17;79.52;99889.19;5108106;28;20042;-71
2023/01/09 05:03:23;;;;;;;60.53;31.30;;;;;;;0.17;79.10;99888.38;5107837;28;20027;-71
2023/01/09 05:05:49;;;;;;;69.70;35.15;;;;;;;0.21;78.94;99889.50;5111429;28;20028;-71
2023/01/09 05:08:33;;;;;;;69.90;35.70;;;;;;;0.11;79.12;99893.78;5114280;28;20028;-71
2023/01/09 05:10:59;;;;;;;61.10;33.22;;;;;;;-0.18;80.66;99890.34;5113344;28;20027;-71
2023/01/09 05:13:25;;;;;;;68.00;36.03;;;;;;;0.00;80.51;99897.50;5113559;28;20490;-71
2023/01/09 05:15:50;;;;;;;79.03;42.70;;;;;;;0.08;80.04;99905.31;5113425;28;20072;-71
2023/01/09 05:18:16;;;;;;;73.70;39.72;;;;;;;-0.02;80.57;99897.75;5114069;28;20031;-71
2023/01/09 05:20:41;;;;;;;68.00;37.30;;;;;;;-0.20;81.03;99904.38;5114539;27;20023;-71
2023/01/09 05:23:07;;;;;;;61.70;34.55;;;;;;;-0.36;81.59;99902.47;5112631;28;20034;-73
2023/01/09 05:25:32;;;;;;;56.78;32.40;;;;;;;-0.35;81.78;99898.66;5114343;28;20031;-72
2023/01/09 05:28:00;;;;;;;70.90;37.05;;;;;;;-0.35;80.51;99893.16;5113099;28;20031;-72
2023/01/09 05:30:26;;;;;;;72.15;38.53;;;;;;;-0.19;80.19;99897.78;5114540;28;20020;-73
2023/01/09 05:32:51;;;;;;;71.63;38.03;;;;;;;-0.08;79.89;99895.19;5113963;28;20027;-73
2023/01/09 05:35:16;;;;;;;80.57;39.88;;;;;;;-0.05;80.07;99891.94;5111909;28;20088;-72
2023/01/09 05:37:42;;;;;;;79.28;41.35;;;;;;;0.06;79.62;99893.72;5107011;28;20062;-72
2023/01/09 05:40:08;;;;;;;77.15;40.10;;;;;;;-0.02;80.23;99888.66;5111931;28;20031;-73
2023/01/09 05:42:33;;;;;;;74.25;40.35;;;;;;;-0.09;81.19;99888.03;5114099;28;20486;-72
2023/01/09 05:44:59;;;;;;;75.28;39.58;;;;;;;-0.01;80.73;99880.16;5114155;28;20088;-72
2023/01/09 05:47:24;;;;;;;70.78;40.63;;;;;;;0.10;80.21;99885.81;5113212;28;20042;-72
2023/01/09 05:49:50;;;;;;;95.80;47.03;;;;;;;0.24;79.88;99884.34;5112868;28;20020;-71
2023/01/09 05:52:15;;;;;;;119.25;59.10;;;;;;;0.30;79.96;99887.97;5109174;28;20027;-73
2023/01/09 05:54:41;;;;;;;189.05;87.47;;;;;;;0.26;79.72;99884.91;5097317;28;20027;-72
2023/01/09 05:57:06;;;;;;;144.55;75.15;;;;;;;0.20;79.70;99890.59;5111293;28;20044;-72
2023/01/09 05:59:32;;;;;;;141.65;70.22;;;;;;;0.22;80.01;99888.41;5113220;28;20410;-72
2023/01/09 06:01:57;;;;;;;136.18;66.55;;;;;;;0.31;79.89;99884.13;5112462;28;20507;-72
2023/01/09 06:04:23;;;;;;;117.25;63.35;;;;;;;0.19;80.00;99877.94;5112227;28;20039;-72
2023/01/09 06:06:48;;;;;;;115.18;63.65;;;;;;;0.36;79.94;99886.97;5101200;28;20525;-71
2023/01/09 06:09:14;;;;;;;114.55;61.00;;;;;;;0.34;80.12;99882.81;5110845;28;20123;-71
2023/01/09 06:11:39;;;;;;;113.55;60.60;;;;;;;0.46;79.83;99882.66;5110058;28;20031;-70
2023/01/09 06:14:05;;;;;;;114.57;61.83;;;;;;;0.59;79.44;99879.50;5112098;28;20582;-71
2023/01/09 06:16:31;;;;;;;119.65;68.90;;;;;;;0.57;79.61;99881.69;5108354;28;20051;-71
2023/01/09 06:18:56;;;;;;;99.70;55.83;;;;;;;0.60;79.65;99881.16;5110693;28;20034;-71
2023/01/09 06:21:22;;;;;;;93.18;49.53;;;;;;;0.63;79.67;99875.16;5109453;28;20375;-72
2023/01/09 06:23:47;;;;;;;79.35;47.60;;;;;;;0.64;79.78;99871.31;5107908;28;20051;-71
2023/01/09 06:26:13;;;;;;;68.03;41.75;;;;;;;0.64;79.78;99874.06;5108999;28;20028;-72
2023/01/09 06:28:38;;;;;;;69.90;39.17;;;;;;;0.42;80.55;99871.31;5107534;28;20024;-73
2023/01/09 06:31:04;;;;;;;88.07;43.40;;;;;;;0.45;80.81;99875.47;5104550;28;20016;-72
2023/01/09 06:33:31;;;;;;;96.15;43.13;;;;;;;0.59;80.87;99881.44;5110141;28;20035;-72
2023/01/09 06:35:56;;;;;;;85.95;41.17;;;;;;;0.57;80.44;99884.44;5108958;28;20111;-75
2023/01/09 06:38:22;;;;;;;76.47;43.75;;;;;;;0.47;81.76;99881.56;5103607;28;20107;-72
2023/01/09 06:40:49;;;;;;;86.50;49.50;;;;;;;0.63;81.80;99879.81;5110734;28;20274;-72
2023/01/09 06:43:14;;;;;;;125.05;59.58;;;;;;;0.75;81.26;99887.94;5103921;28;20678;-74
2023/01/09 06:45:44;;;;;;;117.47;61.10;;;;;;;0.68;81.71;99890.91;5107567;28;20053;-73
2023/01/09 06:48:10;;;;;;;111.63;61.47;;;;;;;0.77;81.08;99883.81;5105389;28;20055;-73
2023/01/09 06:50:35;;;;;;;106.00;58.50;;;;;;;0.98;80.87;99884.03;5106413;27;20035;-71
2023/01/09 06:53:01;;;;;;;133.77;73.28;;;;;;;1.02;81.04;99882.41;5108243;28;20401;-69
2023/01/09 06:55:26;;;;;;;148.80;62.88;;;;;;;0.93;81.41;99890.31;5109046;28;20039;-70
2023/01/09 06:57:52;;;;;;;188.45;73.38;;;;;;;0.98;81.38;99879.38;5109074;28;20031;-70
2023/01/09 07:00:18;;;;;;;163.40;74.72;;;;;;;0.97;81.97;99880.47;5110514;28;20486;-71
2023/01/09 07:02:43;;;;;;;142.57;68.43;;;;;;;0.90;82.82;99890.00;5109770;28;20031;-71
2023/01/09 07:05:10;;;;;;;138.75;70.65;;;;;;;1.08;82.37;99886.88;5106704;28;20027;-70
2023/01/09 07:07:37;;;;;;;149.88;74.35;;;;;;;1.12;82.71;99881.69;5109808;28;20359;-71
2023/01/09 07:10:03;;;;;;;144.77;74.75;;;;;;;1.28;81.98;99879.91;5106204;28;20028;-72
2023/01/09 07:12:29;;;;;;;142.55;74.00;;;;;;;1.29;81.89;99881.56;5109216;28;20023;-71
2023/01/09 07:14:54;;;;;;;138.95;75.05;;;;;;;1.39;80.93;99875.28;5104623;28;20039;-70
2023/01/09 07:17:20;;;;;;;151.52;80.65;;;;;;;1.45;81.37;99884.44;5108373;28;20034;-72
2023/01/09 07:19:45;;;;;;;116.15;62.15;;;;;;;1.42;81.74;99866.47;5107627;28;20486;-74
2023/01/09 07:22:10;;;;;;;122.82;60.65;;;;;;;1.40;82.91;99876.94;5109836;27;20027;-71
2023/01/09 07:24:36;;;;;;;91.43;52.92;;;;;;;1.28;83.80;99865.28;5107214;28;20034;-72
2023/01/09 07:27:04;;;;;;;97.72;52.17;;;;;;;1.15;84.45;99859.09;5096686;28;20032;-74
2023/01/09 07:29:30;;;;;;;91.25;50.08;;;;;;;0.98;86.24;99870.25;5098617;28;20023;-71
2023/01/09 07:31:56;;;;;;;101.18;46.28;;;;;;;1.01;87.37;99874.41;5097825;28;20555;-71
2023/01/09 07:34:21;;;;;;;113.25;44.13;;;;;;;0.66;90.22;99869.13;5092244;28;20108;-74
2023/01/09 07:36:49;;;;;;;93.13;45.03;;;;;;;0.72;90.89;99867.25;5100076;28;20024;-72
2023/01/09 07:39:15;;;;;;;100.78;46.78;;;;;;;0.64;91.77;99868.56;5089603;28;20477;-72
2023/01/09 07:41:40;;;;;;;118.50;52.50;;;;;;;0.29;95.01;99869.81;5095632;28;20039;-69
2023/01/09 07:44:06;;;;;;;115.22;51.08;;;;;;;0.41;96.86;99858.66;5108131;28;20035;-69
2023/01/09 07:46:32;;;;;;;117.72;52.08;;;;;;;0.32;96.33;99861.03;5102309;28;20031;-73
2023/01/09 07:48:57;;;;;;;125.18;52.38;;;;;;;0.22;97.41;99864.50;5103611;28;20118;-74
2023/01/09 07:51:23;;;;;;;155.00;55.50;;;;;;;0.06;98.75;99866.22;5104651;28;20114;-75
2023/01/09 07:53:48;;;;;;;143.18;57.83;;;;;;;0.18;100.00;99851.50;5105781;28;20019;-75
2023/01/09 07:56:14;;;;;;;157.18;58.75;;;;;;;0.45;100.00;99858.97;5098303;28;20039;-75
2023/01/09 07:58:39;;;;;;;134.30;49.78;;;;;;;0.60;99.82;99853.63;5107088;27;20016;-73
2023/01/09 08:01:05;;;;;;;159.88;58.10;;;;;;;0.51;99.15;99849.69;5109644;28;20084;-72
2023/01/09 08:03:34;;;;;;;148.63;54.83;;;;;;;0.73;100.00;99846.88;5110817;28;20028;-71
2023/01/09 08:06:00;;;;;;;152.27;49.50;;;;;;;0.97;98.98;99850.16;5109966;28;20031;-74
2023/01/09 08:08:25;;;;;;;164.23;51.90;;;;;;;0.98;98.65;99827.03;5106512;28;20027;-74
2023/01/09 08:10:51;;;;;;;188.52;56.88;;;;;;;1.14;98.33;99834.56;5107891;28;20360;-74
2023/01/09 08:13:16;;;;;;;159.55;52.30;;;;;;;1.28;97.79;99834.97;5105062;28;20026;-73
2023/01/09 08:15:42;;;;;;;168.73;50.78;;;;;;;1.42;97.70;99829.81;5106610;28;20039;-75
2023/01/09 08:18:07;;;;;;;195.63;60.13;;;;;;;1.54;97.38;99828.50;5101903;28;20024;-75
2023/01/09 08:20:33;;;;;;;193.77;59.05;;;;;;;1.60;97.84;99842.34;5107292;28;20029;-74
2023/01/09 08:22:58;;;;;;;181.15;52.95;;;;;;;1.64;97.75;99837.97;5110811;28;20028;-75
2023/01/09 08:25:24;;;;;;;200.15;55.97;;;;;;;1.75;97.90;99820.38;5106070;28;20391;-74
2023/01/09 08:27:49;;;;;;;198.30;59.00;;;;;;;1.67;98.69;99834.66;5102852;28;20024;-79
2023/01/09 08:30:16;;;;;;;214.18;64.68;;;;;;;1.71;99.57;99833.03;5106242;28;21025;-71
2023/01/09 08:32:42;;;;;;;216.00;68.95;;;;;;;1.83;100.00;99830.06;5105122;28;20042;-73
2023/01/09 08:35:08;;;;;;;233.80;90.20;;;;;;;2.01;100.00;99827.97;5102785;28;20533;-72
2023/01/09 08:37:33;;;;;;;228.23;74.72;;;;;;;1.80;100.00;99831.41;5107710;28;20039;-72
2023/01/09 08:39:59;;;;;;;198.07;67.55;;;;;;;1.94;100.00;99837.28;5107581;28;20073;-73
2023/01/09 08:47:56;;;;;;;207.90;72.97;;;;;;;1.94;100.00;99830.97;5104885;28;20087;-71
2023/01/09 08:50:21;;;;;;;201.38;65.82;;;;;;;2.09;100.00;99839.31;5111465;28;20027;-74
2023/01/09 08:52:47;;;;;;;206.50;65.25;;;;;;;2.18;100.00;99830.50;5096723;28;20019;-74
2023/01/09 08:55:12;;;;;;;175.38;65.72;;;;;;;2.28;100.00;99832.47;5102312;28;20026;-74
2023/01/09 08:57:47;;;;;;;187.32;66.10;;;;;;;2.05;100.00;99832.66;5106548;28;20039;-74
2023/01/09 09:00:13;;;;;;;187.95;61.30;;;;;;;1.91;100.00;99829.56;5100459;28;20023;-74
2023/01/09 09:02:38;;;;;;;201.02;63.05;;;;;;;1.98;100.00;99832.06;5104733;28;20050;-69
2023/01/09 09:05:04;;;;;;;200.25;70.45;;;;;;;2.02;100.00;99821.34;5103723;28;20032;-79
2023/01/09 09:07:30;;;;;;;200.10;74.10;;;;;;;1.96;100.00;99837.84;5105777;28;20081;-75
2023/01/09 09:09:55;;;;;;;203.70;63.40;;;;;;;1.76;100.00;99830.31;5106620;28;20059;-74
2023/01/09 09:12:21;;;;;;;214.35;72.72;;;;;;;1.94;100.00;99834.53;5107266;28;20023;-78
2023/01/09 09:17:32;;;;;;;253.38;78.50;;;;;;;1.80;100.00;99823.16;5096576;28;20093;-75
2023/01/09 09:19:58;;;;;;;266.23;83.68;;;;;;;1.80;100.00;99830.59;5110596;28;20020;-80
2023/01/09 09:22:23;;;;;;;322.63;89.60;;;;;;;1.74;100.00;99818.72;5108860;28;20027;-74
2023/01/09 09:24:49;;;;;;;334.52;99.85;;;;;;;1.93;100.00;99827.34;5106537;28;20019;-76
2023/01/09 09:27:14;;;;;;;315.88;96.35;;;;;;;1.74;100.00;99826.16;5109405;28;20529;-75
2023/01/09 09:29:40;;;;;;;299.73;93.82;;;;;;;1.77;100.00;99820.94;5109844;28;20020;-75
2023/01/09 09:32:05;;;;;;;307.95;96.63;;;;;;;1.90;100.00;99822.38;5104152;28;20606;-73
2023/01/09 09:34:31;;;;;;;319.25;91.13;;;;;;;1.92;100.00;99824.84;5107741;28;20020;-74
2023/01/09 09:36:56;;;;;;;292.70;90.40;;;;;;;1.99;100.00;99819.09;5111133;28;20022;-74
2023/01/09 09:39:21;;;;;;;306.08;94.40;;;;;;;1.94;100.00;99822.69;5110694;28;20039;-74
2023/01/09 09:44:57;;;;;;;;;;;;;;;1.92;100.00;99819.34;5112132;28;20066;-76
2023/01/09 09:47:55;;;;;;;314.05;107.10;;;;;;;1.85;100.00;99805.78;5107884;28;19951;-74
2023/01/09 09:50:23;;;;;;;389.15;138.00;;;;;;;1.94;100.00;99808.88;5111104;28;20422;-75
2023/01/09 09:53:25;;;;;;;305.77;106.57;;;;;;;2.07;100.00;99813.06;5115176;28;20462;-73
2023/01/09 09:55:51;;;;;;;280.33;95.47;;;;;;;2.08;100.00;99793.50;5114338;28;20473;-72
2023/01/09 09:58:33;;;;;;;258.40;94.32;;;;;;;1.93;100.00;99785.13;5111983;28;20432;-71
2023/01/09 10:01:00;;;;;;;301.00;93.18;;;;;;;1.86;100.00;99787.31;5095390;28;20019;-70
2023/01/09 10:03:30;;;;;;;294.70;96.50;;;;;;;1.86;100.00;99787.31;5112184;28;20062;-72
2023/01/09 10:05:57;;;;;;;290.40;96.15;;;;;;;1.94;100.00;99800.63;5111703;28;20603;-71
2023/01/09 10:09:02;;;;;;;296.58;103.60;;;;;;;1.90;100.00;99788.44;5114071;28;20491;-72
2023/01/09 10:12:14;;;;;;;294.30;99.63;;;;;;;1.95;100.00;99786.53;5057374;27;20042;-69
2023/01/09 10:14:40;;;;;;;307.05;101.53;;;;;;;2.03;100.00;99785.19;5085439;28;20461;-70
2023/01/09 10:17:28;;;;;;;354.42;124.60;;;;;;;2.05;100.00;99782.16;5113173;28;20114;-70
2023/01/09 10:20:30;;;;;;;366.58;121.20;;;;;;;2.06;100.00;99779.13;5101799;27;20027;-69
2023/01/09 10:23:30;;;;;;;347.38;120.15;;;;;;;2.07;100.00;99769.75;5106705;28;20034;-70
2023/01/09 10:25:59;;;;;;;396.98;145.95;;;;;;;2.13;100.00;99762.31;5108526;28;20077;-69
2023/01/09 10:28:30;;;;;;;375.25;123.03;;;;;;;2.08;100.00;99760.38;5104270;28;20024;-70
2023/01/09 10:31:25;;;;;;;372.40;128.80;;;;;;;2.06;100.00;99756.22;5100007;28;20085;-70
2023/01/09 10:34:01;;;;;;;370.38;123.20;;;;;;;2.02;100.00;99760.63;5094575;28;20498;-72
2023/01/09 10:36:44;;;;;;;431.02;152.18;;;;;;;2.17;100.00;99754.31;5098140;28;20478;-70
2023/01/09 10:39:18;;;;;;;346.95;104.78;;;;;;;2.14;100.00;99746.56;5102560;28;20107;-69
2023/01/09 10:41:58;;;;;;;294.48;96.22;;;;;;;2.26;100.00;99738.88;5100912;28;20059;-69
2023/01/09 10:44:36;;;;;;;345.13;90.50;;;;;;;2.20;100.00;99734.47;5101207;28;20470;-70
2023/01/09 10:47:15;;;;;;;316.13;82.05;;;;;;;2.25;100.00;99734.47;5095575;28;20399;-69
2023/01/09 10:49:41;;;;;;;260.23;75.93;;;;;;;2.24;100.00;99727.28;5101111;28;20432;-71
2023/01/09 10:52:34;;;;;;;318.38;88.10;;;;;;;2.27;100.00;99732.25;5107755;28;20020;-70
2023/01/09 10:55:26;;;;;;;353.13;98.53;;;;;;;2.31;100.00;99729.78;5089547;28;20430;-70
2023/01/09 10:58:01;;;;;;;334.30;84.07;;;;;;;2.30;100.00;99723.44;5100392;28;20050;-70
2023/01/09 11:00:30;;;;;;;302.25;76.32;;;;;;;2.50;100.00;99719.88;5105418;28;20034;-70
2023/01/09 11:02:55;;;;;;;306.63;92.60;;;;;;;2.57;100.00;99719.59;5105254;28;20027;-70
2023/01/09 11:05:29;;;;;;;292.85;85.65;;;;;;;2.49;100.00;99718.22;5103906;28;20043;-70
2023/01/09 11:08:07;;;;;;;295.48;87.07;;;;;;;2.53;100.00;99715.72;5100648;28;20085;-70
2023/01/09 11:10:55;;;;;;;281.33;80.43;;;;;;;2.64;100.00;99700.81;5099196;28;20065;-72
2023/01/09 11:13:22;;;;;;;293.95;85.80;;;;;;;2.64;100.00;99698.03;5100836;28;20027;-68
2023/01/09 11:15:58;;;;;;;271.20;79.60;;;;;;;2.59;100.00;99698.06;5094969;28;20047;-70
2023/01/09 11:18:24;;;;;;;281.00;81.63;;;;;;;2.65;100.00;99690.59;5100378;28;20456;-70
2023/01/09 11:20:50;;;;;;;258.02;79.75;;;;;;;2.85;100.00;99686.97;5106121;28;20618;-69
2023/01/09 11:23:28;;;;;;;254.48;80.63;;;;;;;2.67;100.00;99680.94;5097952;28;20035;-72
2023/01/09 11:26:00;;;;;;;262.30;76.03;;;;;;;2.78;100.00;99678.16;5099572;28;20500;-69
2023/01/09 11:28:27;;;;;;;237.57;71.22;;;;;;;2.89;100.00;99667.91;5096769;28;20076;-69
2023/01/09 11:31:01;;;;;;;200.15;62.50;;;;;;;3.22;100.00;99666.44;5107589;28;20055;-69
2023/01/09 11:33:36;;;;;;;168.00;55.30;;;;;;;3.27;100.00;99651.78;5094890;28;20481;-69
2023/01/09 11:36:12;;;;;;;196.32;56.08;;;;;;;3.61;100.00;99631.75;5093723;28;20489;-69
2023/01/09 11:38:59;;;;;;;187.88;55.10;;;;;;;3.83;100.00;99624.13;5104492;28;20409;-70
2023/01/09 11:41:30;;;;;;;160.75;51.72;;;;;;;3.89;100.00;99623.00;5106254;28;20513;-70